createdAt,value
2018-02-12T00:01:01.411Z,16.70
2018-02-12T00:03:29.807Z,13.55
2018-02-12T00:05:58.246Z,14.38
2018-02-12T00:08:26.628Z,15.85
2018-02-12T00:10:55.038Z,14.25
2018-02-12T00:13:23.444Z,15.57
2018-02-12T00:15:51.902Z,17.77
2018-02-12T00:18:20.399Z,18.15
2018-02-12T00:20:48.803Z,15.38
2018-02-12T00:23:17.179Z,21.05
2018-02-12T00:25:45.585Z,19.33
2018-02-12T00:28:14.126Z,19.92
2018-02-12T00:30:42.605Z,18.17
2018-02-12T00:33:11.006Z,21.95
2018-02-12T00:35:39.431Z,18.70
2018-02-12T00:38:07.899Z,17.45
2018-02-12T00:40:36.295Z,18.70
2018-02-12T00:43:04.703Z,15.88
2018-02-12T00:45:33.094Z,19.20
2018-02-12T00:48:01.482Z,21.42
2018-02-12T00:50:30.267Z,22.20
2018-02-12T00:52:58.654Z,16.33
2018-02-12T00:55:27.051Z,27.13
2018-02-12T00:57:55.466Z,27.33
2018-02-12T01:00:23.862Z,16.55
2018-02-12T01:02:52.296Z,19.25
2018-02-12T01:05:20.688Z,19.17
2018-02-12T01:07:49.130Z,25.65
2018-02-12T01:10:17.546Z,22.73
2018-02-12T01:12:46.028Z,17.75
2018-02-12T01:15:14.445Z,18.67
2018-02-12T01:17:42.826Z,14.45
2018-02-12T01:20:11.231Z,19.67
2018-02-12T01:22:39.645Z,17.30
2018-02-12T01:25:08.130Z,14.50
2018-02-12T01:27:36.553Z,17.90
2018-02-12T01:30:04.959Z,13.57
2018-02-12T01:32:33.391Z,17.45
2018-02-12T01:35:01.858Z,24.25
2018-02-12T01:37:30.319Z,14.35
2018-02-12T01:39:58.718Z,18.12
2018-02-12T01:42:27.197Z,16.02
2018-02-12T01:44:55.925Z,15.48
2018-02-12T01:47:24.331Z,20.70
2018-02-12T01:50:04.286Z,12.37
2018-02-12T01:52:32.698Z,13.15
2018-02-12T01:55:01.095Z,18.27
2018-02-12T01:57:29.570Z,13.95
2018-02-12T01:59:57.982Z,16.58
2018-02-12T02:02:26.401Z,19.85
2018-02-12T02:04:54.802Z,20.85
2018-02-12T02:07:23.223Z,15.45
2018-02-12T02:09:51.765Z,15.98
2018-02-12T02:12:20.173Z,18.00
2018-02-12T02:14:48.577Z,20.05
2018-02-12T02:17:17.088Z,14.93
2018-02-12T02:19:45.549Z,20.15
2018-02-12T02:22:14.052Z,17.90
2018-02-12T02:24:42.507Z,26.90
2018-02-12T02:27:10.916Z,17.45
2018-02-12T02:29:39.298Z,20.70
2018-02-12T02:32:07.745Z,20.05
2018-02-12T02:34:36.260Z,17.98
2018-02-12T02:37:04.651Z,16.80
2018-02-12T02:39:33.087Z,20.48
2018-02-12T02:42:01.634Z,18.98
2018-02-12T02:44:30.026Z,17.98
2018-02-12T02:46:58.426Z,16.90
2018-02-12T02:49:26.823Z,24.05
2018-02-12T02:51:55.239Z,26.95
2018-02-12T02:54:23.765Z,20.25
2018-02-12T02:56:52.242Z,19.65
2018-02-12T02:59:20.635Z,20.15
2018-02-12T03:01:49.041Z,21.95
2018-02-12T03:04:17.448Z,20.40
2018-02-12T03:06:45.907Z,28.75
2018-02-12T03:09:14.303Z,25.58
2018-02-12T03:11:43.196Z,35.65
2018-02-12T03:14:11.593Z,20.17
2018-02-12T03:16:39.999Z,17.50
2018-02-12T03:19:08.387Z,16.87
2018-02-12T03:21:36.784Z,15.27
2018-02-12T03:24:05.242Z,12.63
2018-02-12T03:26:34.580Z,12.80
2018-02-12T03:29:03.170Z,13.75
2018-02-12T03:31:31.564Z,15.32
2018-02-12T03:33:59.963Z,10.95
2018-02-12T03:36:28.762Z,15.23
2018-02-12T03:38:57.155Z,11.93
2018-02-12T03:41:25.544Z,15.50
2018-02-12T03:43:53.933Z,14.57
2018-02-12T03:46:22.397Z,20.83
2018-02-12T03:48:50.793Z,19.80
2018-02-12T03:51:19.272Z,14.10
2018-02-12T03:53:47.648Z,19.17
2018-02-12T03:56:16.052Z,13.00
2018-02-12T03:58:44.572Z,15.30
2018-02-12T04:01:13.043Z,14.38
2018-02-12T04:03:41.533Z,16.40
2018-02-12T04:06:09.925Z,17.77
2018-02-12T04:08:38.305Z,19.20
2018-02-12T04:11:06.698Z,19.70
2018-02-12T04:13:35.181Z,22.67
2018-02-12T04:16:03.587Z,14.52
2018-02-12T04:18:31.975Z,14.25
2018-02-12T04:21:00.373Z,17.17
2018-02-12T04:23:28.822Z,16.17
2018-02-12T04:25:57.213Z,18.85
2018-02-12T04:28:25.607Z,16.17
2018-02-12T04:30:54.086Z,15.88
2018-02-12T04:33:22.466Z,19.50
2018-02-12T04:35:50.910Z,15.38
2018-02-12T04:38:19.302Z,15.75
2018-02-12T04:40:47.714Z,20.73
2018-02-12T04:43:16.111Z,16.50
2018-02-12T04:45:44.574Z,15.32
2018-02-12T04:48:12.988Z,16.80
2018-02-12T04:50:41.558Z,16.87
2018-02-12T04:53:10.016Z,12.43
2018-02-12T04:55:38.410Z,17.62
2018-02-12T04:58:06.790Z,18.77
2018-02-12T05:00:35.178Z,16.58
2018-02-12T05:03:03.636Z,18.37
2018-02-12T05:05:32.047Z,15.82
2018-02-12T05:08:00.540Z,25.05
2018-02-12T05:10:28.942Z,17.40
2018-02-12T05:12:57.342Z,19.23
2018-02-12T05:15:25.729Z,20.35
2018-02-12T05:17:54.161Z,11.05
2018-02-12T05:20:22.614Z,19.58
2018-02-12T05:22:51.010Z,17.37
2018-02-12T05:25:19.399Z,12.98
2018-02-12T05:27:47.857Z,17.98
2018-02-12T05:30:16.253Z,16.58
2018-02-12T05:32:44.729Z,15.60
2018-02-12T05:35:13.107Z,16.50
2018-02-12T05:37:41.595Z,16.25
2018-02-12T05:40:10.003Z,16.35
2018-02-12T05:42:38.490Z,13.85
2018-02-12T05:45:06.942Z,17.95
2018-02-12T05:47:35.329Z,19.60
2018-02-12T05:50:03.719Z,13.75
2018-02-12T05:52:32.102Z,21.23
2018-02-12T05:55:00.506Z,23.60
2018-02-12T05:57:28.995Z,15.35
2018-02-12T05:59:57.394Z,21.05
2018-02-12T06:02:25.786Z,19.73
2018-02-12T06:04:54.496Z,13.57
2018-02-12T06:07:22.890Z,12.45
2018-02-12T06:09:51.371Z,13.35
2018-02-12T06:12:19.780Z,15.38
2018-02-12T06:14:48.187Z,14.13
2018-02-12T06:17:16.582Z,16.48
2018-02-12T06:19:45.067Z,18.92
2018-02-12T06:22:13.534Z,17.62
2018-02-12T06:24:41.939Z,14.57
2018-02-12T06:27:10.326Z,21.40
2018-02-12T06:29:38.734Z,16.45
2018-02-12T06:32:07.218Z,18.10
2018-02-12T06:34:35.619Z,18.67
2018-02-12T06:37:04.028Z,51.50
2018-02-12T06:39:32.437Z,18.98
2018-02-12T06:42:00.846Z,23.50
2018-02-12T06:44:29.321Z,16.80
2018-02-12T06:46:57.740Z,27.83
2018-02-12T06:49:27.158Z,20.50
2018-02-12T06:51:55.558Z,19.95
2018-02-12T06:54:23.955Z,29.63
2018-02-12T06:56:53.338Z,16.62
2018-02-12T06:59:21.733Z,21.33
2018-02-12T07:01:50.207Z,17.42
2018-02-12T07:04:18.607Z,15.70
2018-02-12T07:06:47.087Z,20.75
2018-02-12T07:09:15.470Z,19.52
2018-02-12T07:11:43.885Z,30.55
2018-02-12T07:14:12.432Z,17.95
2018-02-12T07:16:40.988Z,18.58
2018-02-12T07:19:09.445Z,22.48
2018-02-12T07:21:38.834Z,19.10
2018-02-12T07:24:07.236Z,24.23
2018-02-12T07:26:35.673Z,21.52
2018-02-12T07:29:04.088Z,24.55
2018-02-12T07:31:32.579Z,18.70
2018-02-12T07:34:00.981Z,29.65
2018-02-12T07:36:29.416Z,15.65
2018-02-12T07:38:57.863Z,28.00
2018-02-12T07:41:26.255Z,17.50
2018-02-12T07:43:54.717Z,23.98
2018-02-12T07:46:23.136Z,21.87
2018-02-12T07:48:51.539Z,20.62
2018-02-12T07:51:20.069Z,25.27
2018-02-12T07:53:48.475Z,16.25
2018-02-12T07:56:16.932Z,21.80
2018-02-12T07:58:45.394Z,19.05
2018-02-12T08:01:13.908Z,19.90
2018-02-12T08:03:42.381Z,19.37
2018-02-12T08:06:10.783Z,22.08
2018-02-12T08:08:39.184Z,22.02
2018-02-12T08:11:07.572Z,20.75
2018-02-12T08:13:36.041Z,23.40
2018-02-12T08:16:04.454Z,21.70
2018-02-12T08:18:32.896Z,25.20
2018-02-12T08:21:01.291Z,20.17
2018-02-12T08:23:29.748Z,21.55
2018-02-12T08:25:58.208Z,24.02
2018-02-12T08:28:26.604Z,23.42
2018-02-12T08:30:55.086Z,21.20
2018-02-12T08:33:23.496Z,28.38
2018-02-12T08:35:51.906Z,23.27
2018-02-12T08:38:20.328Z,18.58
2018-02-12T08:40:48.823Z,19.37
2018-02-12T08:43:17.290Z,18.40
2018-02-12T08:45:45.677Z,12.77
2018-02-12T08:48:14.104Z,14.70
2018-02-12T08:50:42.538Z,18.08
2018-02-12T08:53:10.942Z,20.50
2018-02-12T08:55:39.411Z,15.15
2018-02-12T08:58:07.890Z,15.00
2018-02-12T09:00:36.272Z,14.15
2018-02-12T09:03:04.783Z,14.32
2018-02-12T09:05:33.188Z,23.25
2018-02-12T09:08:01.654Z,17.65
2018-02-12T09:10:30.041Z,16.05
2018-02-12T09:12:58.428Z,13.07
2018-02-12T09:15:26.835Z,10.57
2018-02-12T09:17:55.266Z,18.27
2018-02-12T09:20:23.772Z,17.00
2018-02-12T09:22:52.173Z,13.68
2018-02-12T09:25:20.582Z,18.65
2018-02-12T09:27:48.996Z,15.07
2018-02-12T09:30:17.407Z,13.48
2018-02-12T09:32:45.961Z,12.52
2018-02-12T09:35:14.372Z,21.83
2018-02-12T09:37:42.795Z,14.50
2018-02-12T09:40:11.203Z,15.55
2018-02-12T09:42:39.615Z,12.00
2018-02-12T09:45:08.182Z,14.87
2018-02-12T09:47:36.664Z,13.98
2018-02-12T09:50:05.095Z,16.58
2018-02-12T09:52:33.494Z,12.32
2018-02-12T09:55:01.899Z,12.27
2018-02-12T09:57:30.353Z,19.42
2018-02-12T09:59:58.753Z,11.48
2018-02-12T10:02:27.149Z,12.75
2018-02-12T10:04:55.564Z,11.15
2018-02-12T10:07:29.509Z,20.23
2018-02-12T10:09:57.940Z,12.98
2018-02-12T10:12:26.366Z,12.13
2018-02-12T10:14:54.828Z,9.95
2018-02-12T10:17:23.248Z,10.30
2018-02-12T10:19:51.649Z,11.52
2018-02-12T10:22:20.072Z,11.60
2018-02-12T10:24:48.498Z,12.88
2018-02-12T10:27:16.996Z,4.22
2018-02-12T10:29:45.428Z,4.47
2018-02-12T10:32:13.848Z,12.95
2018-02-12T10:34:42.297Z,4.00
2018-02-12T10:37:10.670Z,2.08
2018-02-12T10:39:39.126Z,7.47
2018-02-12T10:42:07.531Z,5.45
2018-02-12T10:44:35.941Z,8.75
2018-02-12T10:47:04.330Z,11.07
2018-02-12T10:49:32.706Z,7.60
2018-02-12T10:52:01.186Z,7.18
2018-02-12T10:54:29.598Z,7.30
2018-02-12T10:56:58.004Z,7.82
2018-02-12T10:59:26.401Z,8.32
2018-02-12T11:01:54.802Z,6.32
2018-02-12T11:04:23.336Z,8.13
2018-02-12T11:06:51.730Z,9.15
2018-02-12T11:09:20.121Z,10.05
2018-02-12T11:11:48.510Z,13.77
2018-02-12T11:14:16.928Z,11.07
2018-02-12T11:16:45.369Z,15.95
2018-02-12T11:19:13.813Z,10.32
2018-02-12T11:21:42.279Z,14.55
2018-02-12T11:24:10.688Z,16.67
2018-02-12T11:26:39.087Z,14.95
2018-02-12T11:29:07.546Z,17.98
2018-02-12T11:31:35.928Z,17.67
2018-02-12T11:34:04.327Z,16.83
2018-02-12T11:36:32.759Z,15.70
2018-02-12T11:39:01.221Z,10.88
2018-02-12T11:41:29.631Z,20.15
2018-02-12T11:43:58.062Z,16.00
2018-02-12T11:46:26.546Z,18.23
2018-02-12T11:48:55.003Z,21.27
2018-02-12T11:51:23.460Z,16.62
2018-02-12T11:53:51.869Z,17.58
2018-02-12T11:56:20.285Z,12.32
2018-02-12T11:58:48.683Z,16.77
2018-02-12T12:01:17.104Z,26.62
2018-02-12T12:03:45.579Z,11.15
2018-02-12T12:06:14.214Z,21.45
2018-02-12T12:08:42.715Z,17.75
2018-02-12T12:11:11.122Z,21.77
2018-02-12T12:13:39.544Z,21.95
2018-02-12T12:16:07.994Z,16.15
2018-02-12T12:18:36.411Z,20.00
2018-02-12T12:21:04.815Z,19.33
2018-02-12T12:23:33.215Z,18.00
2018-02-12T12:26:01.625Z,14.50
2018-02-12T12:28:30.102Z,21.60
2018-02-12T12:30:58.528Z,18.10
2018-02-12T12:33:26.932Z,17.12
2018-02-12T12:35:55.340Z,20.17
2018-02-12T12:38:23.798Z,20.80
2018-02-12T12:40:52.251Z,18.77
2018-02-12T12:43:20.653Z,19.12
2018-02-12T12:45:49.103Z,11.85
2018-02-12T12:48:17.532Z,22.55
2018-02-12T12:50:45.998Z,18.50
2018-02-12T12:53:14.413Z,10.95
2018-02-12T12:55:42.906Z,11.10
2018-02-12T12:58:11.322Z,10.00
2018-02-12T13:00:39.785Z,8.37
2018-02-12T13:03:08.251Z,15.07
2018-02-12T13:05:36.840Z,14.37
2018-02-12T13:08:05.302Z,18.20
2018-02-12T13:10:33.779Z,10.32
2018-02-12T13:13:02.209Z,14.85
2018-02-12T13:15:30.684Z,14.27
2018-02-12T13:17:59.070Z,12.40
2018-02-12T13:20:27.538Z,13.93
2018-02-12T13:22:55.950Z,18.00
2018-02-12T13:25:24.362Z,8.90
2018-02-12T13:27:52.762Z,16.77
2018-02-12T13:30:21.162Z,11.93
2018-02-12T13:32:49.623Z,9.45
2018-02-12T13:35:18.027Z,10.82
2018-02-12T13:37:46.445Z,24.40
2018-02-12T13:40:14.856Z,20.33
2018-02-12T13:42:43.273Z,12.30
2018-02-12T13:45:11.767Z,6.40
2018-02-12T13:47:40.192Z,8.10
2018-02-12T13:50:08.592Z,11.13
2018-02-12T13:52:37.006Z,10.07
2018-02-12T13:55:05.638Z,5.97
2018-02-12T13:57:34.415Z,17.05
2018-02-12T14:00:02.843Z,14.63
2018-02-12T14:02:32.223Z,11.60
2018-02-12T14:05:01.608Z,12.90
2018-02-12T14:07:29.997Z,6.00
2018-02-12T14:09:58.458Z,12.63
2018-02-12T14:12:26.912Z,14.38
2018-02-12T14:14:55.372Z,10.85
2018-02-12T14:17:23.799Z,11.25
2018-02-12T14:19:52.307Z,13.43
2018-02-12T14:22:20.747Z,14.93
2018-02-12T14:24:49.180Z,11.07
2018-02-12T14:27:17.774Z,10.93
2018-02-12T14:29:46.190Z,15.57
2018-02-12T14:32:14.731Z,14.93
2018-02-12T14:34:43.142Z,10.10
2018-02-12T14:37:11.542Z,10.65
2018-02-12T14:39:40.090Z,9.43
2018-02-12T14:42:08.494Z,10.77
2018-02-12T14:44:36.914Z,13.15
2018-02-12T14:47:05.339Z,17.08
2018-02-12T14:49:35.334Z,6.32
2018-02-12T14:52:03.831Z,7.53
2018-02-12T14:54:32.260Z,8.63
2018-02-12T14:57:00.709Z,7.18
2018-02-12T14:59:29.108Z,11.50
2018-02-12T15:01:57.486Z,7.53
2018-02-12T15:04:25.954Z,10.02
2018-02-12T15:06:54.357Z,17.37
2018-02-12T15:09:22.830Z,7.18
2018-02-12T15:11:51.246Z,8.40
2018-02-12T15:14:19.640Z,9.65
2018-02-12T15:16:48.056Z,13.45
2018-02-12T15:19:16.456Z,15.45
2018-02-12T15:21:45.059Z,7.87
2018-02-12T15:24:13.450Z,8.13
2018-02-12T15:26:41.927Z,11.02
2018-02-12T15:29:10.318Z,14.38
2018-02-12T15:31:38.713Z,12.30
2018-02-12T15:34:07.184Z,7.82
2018-02-12T15:36:35.576Z,10.98
2018-02-12T15:39:04.063Z,15.88
2018-02-12T15:41:32.506Z,15.52
2018-02-12T15:44:00.901Z,14.25
2018-02-12T15:46:29.379Z,13.57
2018-02-12T15:48:59.510Z,9.50
2018-02-12T15:51:27.919Z,18.75
2018-02-12T15:53:56.353Z,13.07
2018-02-12T15:56:24.754Z,10.45
2018-02-12T15:58:53.242Z,14.73
2018-02-12T16:01:21.632Z,13.20
2018-02-12T16:03:50.041Z,17.92
2018-02-12T16:06:18.436Z,14.00
2018-02-12T16:08:47.817Z,15.80
2018-02-12T16:11:16.307Z,12.98
2018-02-12T16:13:44.790Z,16.45
2018-02-12T16:16:13.189Z,10.63
2018-02-12T16:18:41.785Z,12.43
2018-02-12T16:21:10.185Z,13.43
2018-02-12T16:23:38.748Z,13.93
2018-02-12T16:26:07.134Z,11.57
2018-02-12T16:28:35.592Z,14.48
2018-02-12T16:31:04.020Z,16.85
2018-02-12T16:33:32.452Z,13.05
2018-02-12T16:36:01.289Z,16.48
2018-02-12T16:38:29.802Z,15.48
2018-02-12T16:40:58.322Z,19.27
2018-02-12T16:43:26.713Z,13.07
2018-02-12T16:45:55.124Z,14.75
2018-02-12T16:48:23.580Z,19.67
2018-02-12T16:50:51.987Z,21.77
2018-02-12T16:53:20.492Z,15.40
2018-02-12T16:55:48.911Z,17.83
2018-02-12T16:58:17.315Z,17.73
2018-02-12T17:00:46.019Z,21.75
2018-02-12T17:03:14.438Z,21.83
2018-02-12T17:05:42.836Z,30.30
2018-02-12T17:08:11.215Z,15.38
2018-02-12T17:10:39.609Z,21.20
2018-02-12T17:13:08.089Z,24.67
2018-02-12T17:15:36.501Z,32.38
2018-02-12T17:18:04.922Z,20.10
2018-02-12T17:20:33.461Z,23.55
2018-02-12T17:23:01.832Z,19.90
2018-02-12T17:25:30.379Z,36.58
2018-02-12T17:27:58.795Z,29.63
2018-02-12T17:30:27.301Z,20.95
2018-02-12T17:32:55.714Z,18.67
2018-02-12T17:35:24.203Z,26.40
2018-02-12T17:37:52.681Z,27.85
2018-02-12T17:40:21.115Z,22.15
2018-02-12T17:42:49.530Z,23.77
2018-02-12T17:45:17.922Z,25.77
2018-02-12T17:47:46.333Z,18.62
2018-02-12T17:50:14.891Z,21.75
2018-02-12T17:52:43.323Z,32.95
2018-02-12T17:55:11.721Z,21.30
2018-02-12T17:57:40.152Z,25.73
2018-02-12T18:00:08.543Z,25.17
2018-02-12T18:02:37.036Z,34.22
2018-02-12T18:05:05.577Z,32.08
2018-02-12T18:07:33.986Z,36.42
2018-02-12T18:10:02.377Z,37.80
2018-02-12T18:12:30.781Z,27.75
2018-02-12T18:14:59.276Z,30.10
2018-02-12T18:17:27.752Z,29.75
2018-02-12T18:19:56.186Z,34.60
2018-02-12T18:22:24.583Z,32.28
2018-02-12T18:24:53.045Z,36.58
2018-02-12T18:27:21.530Z,30.60
2018-02-12T18:29:49.944Z,46.03
2018-02-12T18:32:18.361Z,40.85
2018-02-12T18:34:46.761Z,32.03
2018-02-12T18:37:15.409Z,39.03
2018-02-12T18:39:44.081Z,40.78
2018-02-12T18:42:12.493Z,28.65
2018-02-12T18:44:41.006Z,34.90
2018-02-12T18:47:09.438Z,46.70
2018-02-12T18:49:37.857Z,34.63
2018-02-12T18:52:06.307Z,34.33
2018-02-12T18:54:34.716Z,42.75
2018-02-12T18:57:03.209Z,33.55
2018-02-12T18:59:31.617Z,43.83
2018-02-12T19:02:00.100Z,33.08
2018-02-12T19:04:28.597Z,42.25
2018-02-12T19:06:57.036Z,40.85
2018-02-12T19:09:25.461Z,43.53
2018-02-12T19:11:53.888Z,41.42
2018-02-12T19:14:22.370Z,37.58
2018-02-12T19:16:50.830Z,39.03
2018-02-12T19:19:19.232Z,44.60
2018-02-12T19:21:47.656Z,42.03
2018-02-12T19:24:16.128Z,38.00
2018-02-12T19:26:44.554Z,41.65
2018-02-12T19:29:13.323Z,49.08
2018-02-12T19:31:41.751Z,39.92
2018-02-12T19:34:10.158Z,43.30
2018-02-12T19:36:38.564Z,47.83
2018-02-12T19:39:07.005Z,38.03
2018-02-12T19:41:35.791Z,33.20
2018-02-12T19:44:04.273Z,32.22
2018-02-12T19:46:32.715Z,37.63
2018-02-12T19:49:01.186Z,36.88
2018-02-12T19:51:29.643Z,49.00
2018-02-12T19:53:58.640Z,42.50
2018-02-12T19:56:27.140Z,35.95
2018-02-12T19:58:55.537Z,39.60
2018-02-12T20:01:23.967Z,36.67
2018-02-12T20:03:52.399Z,32.15
2018-02-12T20:06:20.902Z,36.63
2018-02-12T20:08:49.340Z,37.17
2018-02-12T20:11:17.744Z,34.05
2018-02-12T20:13:46.164Z,41.63
2018-02-12T20:16:14.547Z,38.80
2018-02-12T20:18:43.031Z,32.30
2018-02-12T20:21:11.422Z,39.80
2018-02-12T20:23:39.832Z,39.38
2018-02-12T20:26:08.252Z,41.97
2018-02-12T20:28:36.677Z,44.55
2018-02-12T20:31:05.249Z,37.30
2018-02-12T20:33:33.661Z,44.03
2018-02-12T20:36:02.072Z,38.63
2018-02-12T20:38:30.474Z,27.90
2018-02-12T20:40:58.878Z,42.78
2018-02-12T20:43:27.288Z,48.85
2018-02-12T20:45:55.697Z,37.58
2018-02-12T20:48:24.576Z,40.72
2018-02-12T20:50:52.977Z,36.53
2018-02-12T20:53:21.385Z,38.22
2018-02-12T20:55:49.875Z,42.30
2018-02-12T20:58:19.172Z,44.13
2018-02-12T21:00:47.633Z,51.45
2018-02-12T21:03:16.145Z,37.92
2018-02-12T21:05:44.618Z,39.53
2018-02-12T21:08:13.009Z,36.58
2018-02-12T21:10:41.406Z,38.25
2018-02-12T21:13:09.875Z,44.35
2018-02-12T21:15:38.291Z,35.33
2018-02-12T21:18:07.764Z,34.53
2018-02-12T21:20:36.459Z,39.58
2018-02-12T21:23:05.163Z,43.75
2018-02-12T21:25:33.921Z,43.42
2018-02-12T21:28:02.508Z,35.08
2018-02-12T21:30:31.107Z,37.38
2018-02-12T21:32:59.742Z,42.55
2018-02-12T21:35:28.237Z,36.78
2018-02-12T21:37:59.607Z,40.42
2018-02-12T21:40:28.004Z,40.15
2018-02-12T21:42:56.456Z,40.47
2018-02-12T21:45:24.860Z,43.10
2018-02-12T21:47:53.346Z,39.10
2018-02-12T21:50:22.391Z,39.95
2018-02-12T21:52:50.946Z,39.13
2018-02-12T21:55:19.329Z,44.40
2018-02-12T21:57:47.734Z,39.50
2018-02-12T22:00:16.189Z,37.40
2018-02-12T22:02:44.640Z,39.70
2018-02-12T22:05:13.151Z,44.35
2018-02-12T22:07:41.629Z,39.03
2018-02-12T22:10:10.038Z,35.40
2018-02-12T22:12:38.587Z,34.78
2018-02-12T22:15:06.982Z,42.60
2018-02-12T22:17:35.396Z,38.83
2018-02-12T22:20:03.798Z,38.65
2018-02-12T22:22:32.237Z,47.88
2018-02-12T22:25:00.815Z,37.67
2018-02-12T22:27:29.305Z,43.45
2018-02-12T22:29:57.701Z,40.40
2018-02-12T22:32:26.104Z,39.15
2018-02-12T22:34:54.527Z,41.37
2018-02-12T22:37:22.990Z,34.47
2018-02-12T22:39:51.392Z,43.20
2018-02-12T22:42:19.801Z,43.17
2018-02-12T22:44:48.207Z,50.70
2018-02-12T22:47:16.610Z,40.60
2018-02-12T22:49:45.119Z,35.15
2018-02-12T22:52:13.598Z,36.22
2018-02-12T22:54:41.998Z,34.75
2018-02-12T22:57:10.389Z,36.05
2018-02-12T22:59:38.955Z,44.17
2018-02-12T23:04:42.096Z,34.47
2018-02-12T23:07:10.570Z,38.88
2018-02-12T23:09:38.965Z,30.30
2018-02-12T23:12:07.360Z,39.17
2018-02-12T23:14:37.994Z,32.67
2018-02-12T23:17:11.936Z,36.22
2018-02-12T23:19:40.417Z,31.10
2018-02-12T23:22:08.840Z,39.97
2018-02-12T23:24:37.628Z,34.60
2018-02-12T23:27:06.049Z,32.05
2018-02-12T23:29:34.562Z,29.85
2018-02-12T23:32:02.946Z,32.53
2018-02-12T23:34:31.355Z,34.60
2018-02-12T23:36:59.970Z,24.58
2018-02-12T23:39:28.463Z,27.55
2018-02-12T23:41:56.871Z,26.85
2018-02-12T23:44:25.273Z,24.10
2018-02-12T23:46:53.658Z,26.73
2018-02-12T23:49:22.122Z,22.67
2018-02-12T23:51:50.525Z,26.70
2018-02-12T23:54:24.913Z,28.67
2018-02-12T23:56:53.332Z,31.08
2018-02-12T23:59:21.736Z,27.30
